Time;durP1;ratioP1;P1;durP2;ratioP2;P2;SDS_P1;SDS_P2;PMS_P1;PMS_P2;Temp;Humidity;BMP_temperature;BMP_pressure;BME280_temperature;BME280_humidity;BME280_pressure;Samples;Min_cycle;Max_cycle;Signal;HPM_P1;HPM_P2
2022/06/28 00:00:25;;;;;;;3.08;0.77;;;;;;;21.43;64.87;93061.00;2048595;70;20147;-75
2022/06/28 00:02:51;;;;;;;2.30;0.85;;;;;;;21.32;64.93;93060.00;2048597;70;20204;-73
2022/06/28 00:05:17;;;;;;;2.58;1.17;;;;;;;21.45;64.11;93064.66;2048885;70;20154;-73
2022/06/28 00:07:44;;;;;;;2.83;0.80;;;;;;;21.28;65.19;93069.19;2048668;70;20145;-73
2022/06/28 00:10:12;;;;;;;4.65;1.00;;;;;;;21.22;65.45;93068.31;2045325;70;20245;-73
2022/06/28 00:12:38;;;;;;;1.92;0.73;;;;;;;21.43;64.12;93058.84;2048643;70;20244;-74
2022/06/28 00:17:51;;;;;;;5.95;1.15;;;;;;;21.21;65.12;93052.50;2048627;70;20153;-73
2022/06/28 00:20:17;;;;;;;4.28;0.80;;;;;;;21.17;65.42;93047.44;2048245;70;20178;-72
2022/06/28 00:22:42;;;;;;;3.38;0.85;;;;;;;20.88;67.10;93045.16;2048148;70;20640;-73
2022/06/28 00:25:08;;;;;;;2.28;0.90;;;;;;;20.94;66.67;93039.63;2048379;70;20178;-73
2022/06/28 00:27:34;;;;;;;5.32;0.80;;;;;;;21.22;65.00;93051.84;2048106;70;20515;-73
2022/06/28 00:29:59;;;;;;;4.88;1.02;;;;;;;21.39;64.16;93058.03;2044545;70;20168;-73
2022/06/28 00:32:26;;;;;;;4.13;0.90;;;;;;;21.17;65.68;93055.28;2044839;70;20155;-72
2022/06/28 00:34:51;;;;;;;2.90;0.88;;;;;;;21.09;66.65;93061.50;2045135;70;20161;-74
2022/06/28 00:37:17;;;;;;;2.63;0.70;;;;;;;20.65;66.59;93058.84;2048273;70;20507;-72
2022/06/28 00:39:43;;;;;;;1.88;1.05;;;;;;;20.34;69.03;93070.75;2048492;70;20182;-71
2022/06/28 00:42:09;;;;;;;1.02;0.90;;;;;;;20.52;68.08;93068.47;2048450;70;20232;-72
2022/06/28 00:44:37;;;;;;;2.40;0.90;;;;;;;20.87;66.94;93067.34;2048531;70;20154;-72
2022/06/28 00:47:03;;;;;;;3.22;0.90;;;;;;;20.97;66.11;93069.75;2042456;70;20143;-72
2022/06/28 00:49:30;;;;;;;2.50;0.90;;;;;;;20.89;66.55;93087.44;2048552;70;20134;-73
2022/06/28 00:51:58;;;;;;;5.45;1.10;;;;;;;21.12;65.35;93082.31;2048477;70;20515;-71
2022/06/28 00:54:25;;;;;;;3.90;1.00;;;;;;;20.99;65.93;93081.28;2048609;70;20143;-72
2022/06/28 00:56:52;;;;;;;4.63;1.10;;;;;;;20.99;65.30;93073.41;2045288;70;20147;-73
2022/06/28 00:59:17;;;;;;;1.00;0.88;;;;;;;21.23;63.40;93078.34;2048440;70;20257;-72
2022/06/28 01:01:44;;;;;;;2.13;0.80;;;;;;;20.84;65.55;93079.38;2048555;70;20142;-74
2022/06/28 01:04:10;;;;;;;2.50;1.30;;;;;;;20.20;69.21;93085.31;2048518;70;20182;-73
2022/06/28 01:06:38;;;;;;;2.72;0.90;;;;;;;20.48;68.02;93083.38;2045007;70;20204;-72
2022/06/28 01:09:04;;;;;;;2.47;0.77;;;;;;;20.71;67.96;93084.78;2045034;70;20139;-72
2022/06/28 01:11:33;;;;;;;3.20;0.80;;;;;;;20.76;67.76;93088.50;2044933;70;20531;-71
2022/06/28 01:14:02;;;;;;;3.25;0.98;;;;;;;20.89;67.09;93087.44;2044857;70;20146;-73
2022/06/28 01:16:40;;;;;;;1.67;0.80;;;;;;;20.84;67.06;93087.97;2045043;70;20142;-71
2022/06/28 01:19:14;;;;;;;4.00;1.08;;;;;;;20.99;64.85;93087.72;2045245;70;20265;-72
2022/06/28 01:21:41;;;;;;;2.13;1.15;;;;;;;21.22;63.28;93094.78;2048423;70;20240;-74
2022/06/28 01:24:07;;;;;;;3.65;0.90;;;;;;;20.75;65.77;93090.59;2045200;70;20163;-76
2022/06/28 01:26:46;;;;;;;1.75;0.82;;;;;;;20.76;66.07;93091.34;2045197;70;20158;-75
2022/06/28 01:29:12;;;;;;;4.68;1.00;;;;;;;20.98;64.22;93091.25;2045076;70;20127;-72
2022/06/28 01:31:57;;;;;;;2.30;0.90;;;;;;;21.02;62.93;93089.22;2045203;70;20216;-71
2022/06/28 01:34:23;;;;;;;3.10;0.98;;;;;;;21.12;63.62;93097.38;2045199;70;20212;-76
2022/06/28 01:36:50;;;;;;;3.20;1.00;;;;;;;20.85;64.66;93093.03;2044987;70;20134;-71
2022/06/28 01:39:17;;;;;;;1.83;1.00;;;;;;;21.03;63.32;93092.84;2045185;70;20178;-74
2022/06/28 01:41:43;;;;;;;1.98;1.00;;;;;;;20.95;63.54;93104.78;2044888;70;20237;-71
2022/06/28 01:44:19;;;;;;;4.20;0.95;;;;;;;21.06;62.01;93103.66;2045129;70;20153;-71
2022/06/28 01:46:55;;;;;;;1.77;0.80;;;;;;;21.06;62.62;93102.91;2045089;70;20158;-71
2022/06/28 01:49:24;;;;;;;4.55;0.85;;;;;;;21.15;62.19;93101.03;2045215;70;20139;-72
2022/06/28 01:51:51;;;;;;;2.65;0.93;;;;;;;21.16;61.95;93099.59;2048210;70;20141;-72
2022/06/28 01:54:17;;;;;;;1.13;0.80;;;;;;;20.87;63.58;93098.09;2045179;70;20249;-72
2022/06/28 01:56:43;;;;;;;2.00;0.80;;;;;;;20.92;62.30;93100.38;2045109;70;20178;-72
2022/06/28 01:59:14;;;;;;;2.15;1.02;;;;;;;21.03;62.23;93107.88;2045036;70;20523;-76
2022/06/28 02:01:53;;;;;;;2.55;0.90;;;;;;;20.05;67.96;93092.72;2045004;70;20154;-73
2022/06/28 02:04:27;;;;;;;2.15;1.08;;;;;;;20.37;66.64;93098.72;2045097;70;20161;-72
2022/06/28 02:06:58;;;;;;;6.20;1.17;;;;;;;20.06;67.72;93097.78;2044993;70;20174;-72
2022/06/28 02:09:28;;;;;;;2.17;1.05;;;;;;;20.12;68.44;93099.38;2044898;70;20150;-73
2022/06/28 02:11:55;;;;;;;3.92;1.25;;;;;;;20.30;67.41;93100.69;2042170;70;20547;-73
2022/06/28 02:14:25;;;;;;;2.38;1.00;;;;;;;19.99;68.31;93090.41;2044940;70;20147;-78
2022/06/28 02:16:54;;;;;;;2.05;1.02;;;;;;;20.00;67.82;93096.84;2044808;70;20162;-77
2022/06/28 02:19:20;;;;;;;3.42;1.30;;;;;;;19.99;68.74;93083.97;2045038;70;20656;-77
2022/06/28 02:21:45;;;;;;;2.28;1.10;;;;;;;20.26;67.84;93091.25;2044918;70;20142;-77
2022/06/28 02:24:12;;;;;;;3.08;1.30;;;;;;;20.33;67.96;93092.16;2048173;70;20146;-73
2022/06/28 02:26:38;;;;;;;2.78;1.20;;;;;;;20.30;68.53;93097.09;2044746;70;20150;-73
2022/06/28 02:29:05;;;;;;;2.83;1.20;;;;;;;20.54;65.85;93095.00;2044444;70;20149;-72
2022/06/28 02:31:32;;;;;;;1.98;1.10;;;;;;;20.34;67.19;93097.19;2044475;70;20193;-72
2022/06/28 02:33:57;;;;;;;2.63;1.10;;;;;;;20.36;67.14;93090.84;2044581;70;20213;-72
2022/06/28 02:41:44;;;;;;;4.00;1.40;;;;;;;20.04;68.63;93099.84;2044622;70;20178;-75
2022/06/28 02:44:10;;;;;;;3.60;1.10;;;;;;;20.34;67.36;93110.78;2047864;70;20166;-74
2022/06/28 02:46:36;;;;;;;1.70;1.35;;;;;;;20.45;66.88;93107.56;2048074;70;20621;-72
2022/06/28 02:49:02;;;;;;;1.70;1.13;;;;;;;20.52;65.49;93111.34;2044862;70;20142;-72
2022/06/28 02:51:28;;;;;;;2.72;1.38;;;;;;;20.10;67.92;93117.19;2048282;70;20146;-72
2022/06/28 02:53:54;;;;;;;3.20;1.30;;;;;;;20.19;67.46;93121.75;2047951;70;20143;-75
2022/06/28 02:56:21;;;;;;;2.95;1.25;;;;;;;20.23;66.16;93127.59;2048272;70;20154;-78
2022/06/28 02:58:47;;;;;;;5.43;1.40;;;;;;;19.87;69.59;93132.88;2044754;70;20616;-73
2022/06/28 03:01:13;;;;;;;4.78;1.20;;;;;;;20.14;67.49;93142.31;2044908;70;20626;-75
2022/06/28 03:03:40;;;;;;;1.85;1.15;;;;;;;20.28;66.83;93134.91;2044717;70;20162;-78
2022/06/28 03:06:06;;;;;;;2.65;1.25;;;;;;;20.55;64.40;93142.22;2048120;70;20141;-74
2022/06/28 03:08:32;;;;;;;5.47;1.45;;;;;;;19.92;69.36;93143.03;2045027;70;20153;-73
2022/06/28 03:10:59;;;;;;;2.72;1.30;;;;;;;20.09;69.02;93146.44;2047926;70;20151;-72
2022/06/28 03:13:25;;;;;;;3.78;1.25;;;;;;;20.19;69.11;93146.75;2044689;70;20184;-72
2022/06/28 03:15:50;;;;;;;4.10;1.25;;;;;;;20.20;69.05;93145.34;2048093;70;20151;-72
2022/06/28 03:18:16;;;;;;;4.03;1.20;;;;;;;20.48;65.85;93142.69;2048075;70;20178;-72
2022/06/28 03:20:42;;;;;;;5.35;1.20;;;;;;;20.19;67.36;93149.63;2048168;70;20149;-74
2022/06/28 03:23:08;;;;;;;1.40;1.08;;;;;;;20.23;68.62;93153.34;2044824;70;20242;-73
2022/06/28 03:25:33;;;;;;;1.58;1.02;;;;;;;20.16;68.65;93162.38;2044928;70;20634;-73
2022/06/28 03:28:00;;;;;;;3.50;1.15;;;;;;;20.27;69.29;93164.19;2044884;70;20159;-74
2022/06/28 03:30:26;;;;;;;2.83;1.10;;;;;;;20.10;69.97;93160.06;2047945;70;20163;-77
2022/06/28 03:32:51;;;;;;;3.03;1.00;;;;;;;20.24;68.74;93168.34;2044833;70;20159;-77
2022/06/28 03:35:24;;;;;;;4.20;1.00;;;;;;;20.37;68.11;93167.34;2044796;70;20150;-72
2022/06/28 03:37:51;;;;;;;2.78;1.20;;;;;;;20.40;67.00;93166.03;2044765;70;20147;-72
2022/06/28 03:40:17;;;;;;;2.25;1.15;;;;;;;20.11;69.76;93178.66;2044854;70;20271;-72
2022/06/28 03:42:47;;;;;;;1.45;0.85;;;;;;;20.29;68.12;93173.53;2044834;70;20171;-72
2022/06/28 03:45:13;;;;;;;6.97;1.10;;;;;;;20.34;67.89;93170.81;2047972;70;20586;-73
2022/06/28 03:47:41;;;;;;;2.50;1.10;;;;;;;20.33;68.60;93175.06;2044988;70;20183;-72
2022/06/28 03:50:38;;;;;;;2.83;1.00;;;;;;;20.34;69.07;93176.53;2044414;70;20665;-72
2022/06/28 03:53:18;;;;;;;3.97;1.00;;;;;;;20.16;69.36;93182.38;2045025;70;20165;-72
2022/06/28 03:56:13;;;;;;;3.15;1.00;;;;;;;20.31;69.04;93178.59;2045827;70;20162;-72
2022/06/28 03:58:39;;;;;;;5.63;0.98;;;;;;;20.22;69.93;93189.03;2048121;70;20151;-72
2022/06/28 04:01:07;;;;;;;5.18;1.05;;;;;;;20.22;69.82;93182.59;2048329;70;20151;-72
2022/06/28 04:03:34;;;;;;;2.53;1.00;;;;;;;20.25;69.48;93186.97;2044958;70;20223;-72
2022/06/28 04:06:00;;;;;;;2.42;1.00;;;;;;;20.23;69.25;93184.06;2045262;70;20138;-72
2022/06/28 04:08:26;;;;;;;3.60;1.10;;;;;;;20.20;69.47;93196.81;2045462;70;20159;-72
2022/06/28 04:11:55;;;;;;;4.28;0.90;;;;;;;20.22;69.37;93200.47;2045402;70;20361;-75
2022/06/28 04:13:53;;;;;;;2.92;1.10;;;;;;;20.19;70.16;93209.63;2046323;70;20158;-72
2022/06/28 04:16:22;;;;;;;1.60;1.10;;;;;;;20.27;69.45;93209.91;2045477;70;20592;-72
2022/06/28 04:18:48;;;;;;;2.83;1.10;;;;;;;20.28;69.56;93214.97;2045454;70;20166;-74
2022/06/28 04:21:40;;;;;;;1.88;1.10;;;;;;;20.41;68.33;93213.22;2048207;70;20153;-72
2022/06/28 04:24:15;;;;;;;3.90;1.10;;;;;;;20.30;68.89;93220.03;2045551;70;20234;-73
2022/06/28 04:26:54;;;;;;;2.33;0.98;;;;;;;20.19;69.99;93216.09;2045358;70;20149;-72
2022/06/28 04:29:26;;;;;;;3.08;1.10;;;;;;;20.30;70.18;93208.59;2045239;70;20170;-73
2022/06/28 04:31:53;;;;;;;3.00;0.98;;;;;;;20.23;70.35;93219.09;2045220;70;20147;-73
2022/06/28 04:34:19;;;;;;;4.32;1.23;;;;;;;20.22;70.24;93220.47;2044993;70;20190;-74
2022/06/28 04:36:49;;;;;;;4.68;1.10;;;;;;;20.23;70.23;93232.66;2045381;70;20240;-73
2022/06/28 04:39:15;;;;;;;3.08;1.05;;;;;;;20.20;71.06;93219.66;2045314;70;20243;-73
2022/06/28 04:41:48;;;;;;;;;;;;;;;20.34;70.15;93230.84;2045446;70;20180;-74
2022/06/28 04:44:17;;;;;;;2.80;1.00;;;;;;;20.37;69.51;93230.25;2048480;69;20066;-76
2022/06/28 04:46:51;;;;;;;3.08;1.00;;;;;;;20.33;70.38;93237.97;2045336;70;20162;-78
2022/06/28 04:49:20;;;;;;;4.03;1.10;;;;;;;20.32;68.41;93242.97;2045234;70;20216;-78
2022/06/28 04:51:50;;;;;;;3.33;0.98;;;;;;;20.32;67.97;93248.69;2045234;70;20147;-75
2022/06/28 04:54:45;;;;;;;2.53;0.90;;;;;;;20.42;67.74;93254.00;2046123;70;20155;-76
2022/06/28 04:57:13;;;;;;;2.78;0.95;;;;;;;20.47;68.72;93230.59;2048515;70;20161;-79
2022/06/28 04:59:45;;;;;;;2.78;0.77;;;;;;;20.44;67.84;93245.50;2045174;70;20147;-74
2022/06/28 05:02:25;;;;;;;1.70;0.90;;;;;;;20.32;68.10;93237.25;2045171;70;20182;-75
2022/06/28 05:04:52;;;;;;;1.67;1.00;;;;;;;20.22;68.86;93234.78;2045234;70;20182;-73
2022/06/28 05:07:34;;;;;;;1.55;1.00;;;;;;;20.42;69.19;93225.41;2045254;70;20235;-74
2022/06/28 05:10:02;;;;;;;3.58;1.00;;;;;;;20.44;68.69;93222.63;2045239;70;20238;-73
2022/06/28 05:12:28;;;;;;;2.33;1.00;;;;;;;20.39;70.10;93224.63;2045135;70;20313;-73
2022/06/28 05:14:54;;;;;;;4.07;1.00;;;;;;;20.39;70.58;93232.44;2042356;70;20142;-74
2022/06/28 05:17:23;;;;;;;1.23;0.70;;;;;;;20.45;69.77;93215.50;2045093;70;20146;-75
2022/06/28 05:19:50;;;;;;;1.98;0.90;;;;;;;20.56;69.50;93203.00;2048259;70;20142;-73
2022/06/28 05:22:16;;;;;;;1.83;0.82;;;;;;;20.65;68.69;93193.28;2045176;70;20142;-73
2022/06/28 05:25:03;;;;;;;2.15;0.82;;;;;;;20.68;69.23;93177.66;2048351;70;20167;-73
2022/06/28 05:27:29;;;;;;;2.10;0.90;;;;;;;20.70;68.18;93176.97;2045126;70;20162;-73
2022/06/28 05:29:54;;;;;;;4.25;0.82;;;;;;;20.50;68.88;93192.09;2045000;70;20146;-73
2022/06/28 05:32:20;;;;;;;2.00;0.77;;;;;;;20.49;69.35;93179.22;2045160;70;20147;-73
2022/06/28 05:34:46;;;;;;;2.08;0.90;;;;;;;20.57;69.38;93173.00;2045308;70;20147;-73
2022/06/28 05:37:11;;;;;;;2.05;0.90;;;;;;;20.65;67.53;93164.66;2048663;70;20150;-76
2022/06/28 05:39:37;;;;;;;2.17;0.93;;;;;;;20.71;69.13;93176.31;2045364;70;20173;-73
2022/06/28 05:42:03;;;;;;;2.35;0.70;;;;;;;20.47;70.59;93187.72;2045334;70;20150;-79
2022/06/28 05:44:29;;;;;;;5.00;1.10;;;;;;;20.59;69.04;93198.09;2042437;70;20612;-76
2022/06/28 05:46:55;;;;;;;3.90;0.80;;;;;;;20.58;68.60;93196.63;2042583;70;20208;-79
2022/06/28 05:49:20;;;;;;;1.73;0.60;;;;;;;20.68;66.99;93199.81;2045291;70;20273;-79
2022/06/28 05:51:46;;;;;;;2.60;0.80;;;;;;;20.68;67.78;93185.50;2045279;70;20216;-73
2022/06/28 05:54:15;;;;;;;3.17;0.70;;;;;;;20.56;69.77;93183.72;2048716;70;20154;-74
2022/06/28 05:56:41;;;;;;;2.60;0.70;;;;;;;20.47;70.34;93187.72;2045301;70;20596;-74
2022/06/28 05:59:06;;;;;;;5.70;0.95;;;;;;;20.59;69.41;93192.38;2045157;70;20135;-76
2022/06/28 06:01:32;;;;;;;8.70;1.00;;;;;;;20.48;69.41;93185.59;2048496;70;20648;-74
2022/06/28 06:03:59;;;;;;;3.78;0.85;;;;;;;20.64;69.20;93186.09;2045289;70;20243;-73
2022/06/28 06:06:25;;;;;;;6.47;1.00;;;;;;;20.56;69.23;93185.84;2045327;70;20574;-73
2022/06/28 06:08:54;;;;;;;1.08;0.82;;;;;;;20.69;68.69;93184.09;2045256;70;20151;-74
2022/06/28 06:11:20;;;;;;;1.67;1.00;;;;;;;20.76;67.07;93188.63;2045168;70;20143;-75
2022/06/28 06:13:46;;;;;;;3.60;0.80;;;;;;;20.79;67.48;93193.00;2045165;70;20131;-73
2022/06/28 06:16:12;;;;;;;2.08;0.80;;;;;;;20.83;67.33;93198.09;2048499;70;20208;-75
2022/06/28 06:18:37;;;;;;;2.60;0.90;;;;;;;20.84;67.84;93182.41;2045210;70;20189;-77
2022/06/28 06:21:03;;;;;;;1.95;0.80;;;;;;;20.84;68.06;93179.53;2048476;70;20635;-78
2022/06/28 06:23:29;;;;;;;2.15;0.60;;;;;;;20.83;68.54;93183.81;2045164;70;20153;-77
2022/06/28 06:26:04;;;;;;;1.08;0.68;;;;;;;20.76;69.04;93180.03;2045503;70;20283;-79
2022/06/28 06:28:30;;;;;;;3.03;0.73;;;;;;;20.81;68.71;93176.63;2042190;70;20143;-74
2022/06/28 06:30:56;;;;;;;2.00;0.88;;;;;;;20.86;69.49;93179.59;2045221;70;20139;-78
2022/06/28 06:33:40;;;;;;;3.05;0.82;;;;;;;20.89;69.82;93172.53;2048525;70;20149;-73
2022/06/28 06:36:21;;;;;;;2.35;0.70;;;;;;;20.75;70.15;93176.41;2045117;70;20154;-72
2022/06/28 06:38:48;;;;;;;1.05;0.70;;;;;;;21.04;68.47;93171.56;2045197;70;20178;-73
2022/06/28 06:41:14;;;;;;;0.88;0.80;;;;;;;20.96;68.02;93166.31;2048431;70;20147;-72
2022/06/28 06:43:42;;;;;;;1.77;0.80;;;;;;;21.09;67.77;93158.09;2048347;70;20182;-73
2022/06/28 06:46:13;;;;;;;3.28;0.82;;;;;;;21.17;67.11;93158.34;2045183;70;20181;-73
2022/06/28 06:48:38;;;;;;;2.28;1.00;;;;;;;21.20;67.59;93160.56;2048546;70;20596;-73
2022/06/28 06:51:04;;;;;;;6.38;1.00;;;;;;;21.24;65.19;93154.97;2045179;70;20544;-73
2022/06/28 06:53:30;;;;;;;1.52;0.80;;;;;;;21.40;62.67;93156.88;2045113;70;20135;-73
2022/06/28 06:55:56;;;;;;;3.60;0.85;;;;;;;21.05;63.69;93153.00;2048518;70;20151;-72
2022/06/28 06:58:22;;;;;;;1.52;1.02;;;;;;;21.29;61.20;93150.09;2045118;70;20157;-75
2022/06/28 07:00:49;;;;;;;2.13;0.93;;;;;;;20.98;62.97;93152.09;2048293;70;20161;-79
2022/06/28 07:03:16;;;;;;;2.80;1.00;;;;;;;21.01;62.34;93155.72;2048371;70;20181;-74
2022/06/28 07:05:42;;;;;;;1.23;0.93;;;;;;;20.66;62.79;93148.97;2045106;70;20154;-73
2022/06/28 07:08:08;;;;;;;1.40;1.00;;;;;;;20.82;62.40;93157.31;2048376;70;20151;-74
2022/06/28 07:10:42;;;;;;;3.92;1.00;;;;;;;21.15;61.93;93152.53;2045040;70;20206;-78
2022/06/28 07:13:08;;;;;;;3.22;0.90;;;;;;;21.24;61.14;93154.97;2045101;70;20238;-75
2022/06/28 07:15:35;;;;;;;0.82;0.70;;;;;;;21.33;60.74;93155.97;2044956;70;20143;-74
2022/06/28 07:18:02;;;;;;;1.95;0.88;;;;;;;21.77;58.38;93164.31;2045092;70;20203;-74
2022/06/28 07:20:28;;;;;;;3.40;0.90;;;;;;;21.59;59.37;93158.09;2048312;70;20202;-72
2022/06/28 07:22:54;;;;;;;2.90;0.90;;;;;;;22.02;59.00;93157.78;2045059;70;20253;-79
2022/06/28 07:25:20;;;;;;;1.73;0.80;;;;;;;22.05;58.88;93156.44;2048377;70;20234;-72
2022/06/28 07:27:46;;;;;;;2.25;0.90;;;;;;;22.15;59.28;93146.66;2045056;70;20533;-74
2022/06/28 07:30:12;;;;;;;1.67;1.08;;;;;;;22.22;58.94;93151.88;2044956;70;20147;-73
2022/06/28 07:32:38;;;;;;;2.58;1.00;;;;;;;22.43;57.60;93146.63;2045055;70;20246;-72
2022/06/28 07:35:05;;;;;;;3.30;1.08;;;;;;;22.45;58.70;93130.22;2048266;70;20142;-80
2022/06/28 07:37:30;;;;;;;4.95;1.10;;;;;;;22.52;56.61;93125.31;2048378;70;20154;-74
2022/06/28 07:39:57;;;;;;;3.63;1.05;;;;;;;22.74;55.96;93139.44;2045245;70;20190;-72
2022/06/28 07:42:23;;;;;;;2.70;0.90;;;;;;;22.65;56.11;93137.81;2048937;70;20249;-73
2022/06/28 07:44:54;;;;;;;2.47;0.98;;;;;;;23.01;56.93;93141.53;2048744;70;20154;-76
2022/06/28 07:47:21;;;;;;;1.42;0.90;;;;;;;23.02;55.06;93133.63;2045535;70;20175;-79
2022/06/28 07:52:34;;;;;;;2.22;0.75;;;;;;;23.23;54.94;93132.66;2045514;70;20600;-75
2022/06/28 07:55:03;;;;;;;2.45;0.80;;;;;;;23.39;53.37;93125.75;2045494;70;20667;-77
2022/06/28 07:57:57;;;;;;;3.05;0.88;;;;;;;23.48;54.76;93125.22;2045599;70;20166;-76
2022/06/28 08:00:24;;;;;;;1.77;0.80;;;;;;;23.69;53.87;93128.53;2042677;70;20715;-80
2022/06/28 08:03:03;;;;;;;1.80;0.90;;;;;;;23.65;53.68;93123.44;2045495;70;20233;-75
2022/06/28 08:05:30;;;;;;;2.95;0.80;;;;;;;23.74;53.34;93122.16;2045494;70;20183;-79
2022/06/28 08:07:56;;;;;;;3.53;1.10;;;;;;;23.90;54.24;93118.84;2045497;70;20201;-73
2022/06/28 08:10:22;;;;;;;1.17;0.70;;;;;;;24.11;53.69;93119.94;2045505;70;20194;-75
2022/06/28 08:12:48;;;;;;;2.05;0.80;;;;;;;23.86;52.65;93110.16;2045411;70;20241;-73
2022/06/28 08:15:15;;;;;;;4.00;1.00;;;;;;;23.49;52.93;93105.84;2045312;70;20151;-71
2022/06/28 08:17:41;;;;;;;2.53;0.85;;;;;;;23.79;52.72;93102.84;2045458;70;20143;-71
2022/06/28 08:20:07;;;;;;;2.03;0.90;;;;;;;23.74;53.04;93104.19;2045430;70;20516;-72
2022/06/28 08:22:33;;;;;;;1.27;0.80;;;;;;;24.30;52.41;93104.41;2045440;70;20671;-72
2022/06/28 08:25:00;;;;;;;0.85;0.82;;;;;;;24.82;53.39;93100.91;2045432;70;20155;-71
2022/06/28 08:27:25;;;;;;;1.80;0.90;;;;;;;24.65;52.56;93090.59;2045408;70;20557;-71
2022/06/28 08:29:52;;;;;;;3.25;1.00;;;;;;;24.34;53.31;93092.97;2048635;70;20238;-72
2022/06/28 08:32:20;;;;;;;1.55;0.77;;;;;;;24.95;50.34;93090.28;2048744;70;20369;-72
2022/06/28 08:34:47;;;;;;;2.15;0.70;;;;;;;24.91;50.96;93075.09;2045420;70;20170;-72
2022/06/28 08:37:13;;;;;;;1.35;1.02;;;;;;;24.46;51.08;93080.94;2045442;70;20174;-72
2022/06/28 08:39:39;;;;;;;1.70;1.05;;;;;;;25.01;50.94;93090.34;2045439;70;20515;-71
2022/06/28 08:42:05;;;;;;;2.88;1.00;;;;;;;25.10;49.40;93074.66;2048714;70;20523;-72
2022/06/28 08:44:34;;;;;;;1.58;0.80;;;;;;;25.02;48.28;93060.13;2048587;70;20143;-71
2022/06/28 08:46:59;;;;;;;1.35;0.90;;;;;;;25.61;49.12;93065.84;2048689;70;20501;-71
2022/06/28 08:50:12;;;;;;;1.15;0.90;;;;;;;25.63;48.47;93057.25;2048655;70;20630;-72
2022/06/28 08:52:39;;;;;;;2.63;1.00;;;;;;;25.59;48.42;93040.63;2042340;70;20317;-72
2022/06/28 08:55:06;;;;;;;1.50;1.02;;;;;;;26.36;47.39;93051.41;2048626;70;20298;-72
2022/06/28 08:57:33;;;;;;;0.93;0.80;;;;;;;26.41;48.66;93047.13;2048822;70;20245;-72
2022/06/28 08:59:59;;;;;;;1.65;1.00;;;;;;;26.83;45.32;93051.72;2048501;70;20182;-72
2022/06/28 09:02:25;;;;;;;1.40;0.90;;;;;;;26.94;44.91;93053.25;2048753;70;20146;-73
2022/06/28 09:04:53;;;;;;;2.38;1.13;;;;;;;27.03;44.35;93057.63;2048598;70;20158;-76
2022/06/28 09:07:21;;;;;;;1.33;1.00;;;;;;;27.22;43.87;93055.56;2048635;70;20147;-74
2022/06/28 09:09:47;;;;;;;2.20;1.23;;;;;;;27.19;43.73;93057.00;2048630;70;20296;-71
2022/06/28 09:12:13;;;;;;;2.40;1.20;;;;;;;26.24;43.77;93057.09;2048568;70;20174;-73
2022/06/28 09:14:39;;;;;;;2.80;1.20;;;;;;;25.91;44.21;93044.56;2045259;70;20164;-73
2022/06/28 09:17:24;;;;;;;1.25;1.10;;;;;;;25.59;44.98;93054.31;2048600;70;20146;-74
2022/06/28 09:19:56;;;;;;;1.50;1.15;;;;;;;26.15;43.73;93047.63;2048585;70;20155;-71
2022/06/28 09:22:38;;;;;;;1.35;1.20;;;;;;;25.71;44.71;93056.59;2048630;70;20669;-72
2022/06/28 09:25:25;;;;;;;2.72;1.10;;;;;;;26.50;44.58;93047.94;2048658;70;20154;-73
2022/06/28 09:27:55;;;;;;;1.23;1.10;;;;;;;26.36;44.23;93037.72;2048644;70;20620;-74
2022/06/28 09:30:22;;;;;;;2.67;1.30;;;;;;;26.41;44.60;93037.75;2048522;70;20146;-72
2022/06/28 09:32:48;;;;;;;1.27;1.15;;;;;;;26.30;44.71;93031.19;2048625;70;20326;-75
2022/06/28 09:35:14;;;;;;;2.03;1.30;;;;;;;26.09;45.97;93025.25;2048538;70;20258;-72
2022/06/28 09:37:47;;;;;;;2.50;1.20;;;;;;;26.06;45.70;93018.00;2048564;70;20175;-72
2022/06/28 09:40:21;;;;;;;1.30;1.20;;;;;;;25.58;46.02;93021.16;2048643;69;20570;-75
2022/06/28 09:43:08;;;;;;;3.28;1.50;;;;;;;24.83;47.07;93013.13;2045286;70;20135;-74
2022/06/28 09:45:36;;;;;;;2.30;1.42;;;;;;;24.79;47.26;93021.69;2048516;70;20174;-71
2022/06/28 09:48:02;;;;;;;1.23;1.13;;;;;;;25.50;46.56;93021.06;2048714;70;20250;-76
2022/06/28 09:50:30;;;;;;;1.75;1.23;;;;;;;25.69;46.57;93028.47;2048586;70;20162;-73
2022/06/28 09:52:58;;;;;;;1.35;1.20;;;;;;;25.62;46.42;93029.13;2048582;70;20619;-78
2022/06/28 09:55:27;;;;;;;1.80;1.38;;;;;;;25.96;45.55;93037.38;2048508;70;20593;-78
2022/06/28 09:57:53;;;;;;;1.50;1.40;;;;;;;26.18;46.02;93028.91;2048568;70;20225;-78
2022/06/28 10:00:24;;;;;;;2.45;1.38;;;;;;;25.46;46.85;93023.91;2045152;70;20517;-71
2022/06/28 10:02:54;;;;;;;1.92;1.33;;;;;;;26.17;45.85;93024.59;2048383;70;20154;-72
2022/06/28 10:05:20;;;;;;;3.72;1.23;;;;;;;25.85;45.31;93028.66;2045406;70;20143;-74
2022/06/28 10:07:46;;;;;;;2.33;1.17;;;;;;;26.23;45.60;93030.41;2048561;70;20245;-72
2022/06/28 10:10:13;;;;;;;2.92;1.10;;;;;;;26.41;45.26;93026.91;2048544;70;20162;-72
2022/06/28 10:15:25;;;;;;;4.05;1.30;;;;;;;25.94;47.13;93015.03;2045089;70;20517;-72
2022/06/28 10:17:56;;;;;;;2.22;1.08;;;;;;;25.71;47.89;93008.31;2048629;70;20593;-73
2022/06/28 10:20:28;;;;;;;3.08;1.30;;;;;;;25.37;48.71;93005.81;2048493;70;20556;-73
2022/06/28 10:23:23;;;;;;;1.23;1.10;;;;;;;24.93;49.23;92998.13;2048647;70;20146;-71
2022/06/28 10:26:18;;;;;;;3.60;1.30;;;;;;;24.90;49.43;93010.31;2048528;70;20643;-71
2022/06/28 10:29:04;;;;;;;2.17;1.30;;;;;;;25.26;48.55;93018.66;2048439;70;20227;-72
2022/06/28 10:31:45;;;;;;;2.55;1.27;;;;;;;24.64;50.23;93016.44;2048485;70;20504;-70
2022/06/28 10:34:13;;;;;;;1.88;1.23;;;;;;;24.66;50.25;93020.09;2048478;70;20615;-72
2022/06/28 10:36:45;;;;;;;3.03;1.20;;;;;;;24.76;50.12;93013.72;2048435;70;20205;-70
2022/06/28 10:39:14;;;;;;;2.53;1.15;;;;;;;24.86;49.43;93013.84;2045151;70;20594;-72
2022/06/28 10:41:41;;;;;;;1.50;1.20;;;;;;;24.35;50.92;93007.41;2045157;70;20197;-74
2022/06/28 10:44:15;;;;;;;2.90;1.20;;;;;;;25.56;48.46;92987.25;2048378;70;20234;-73
2022/06/28 10:46:42;;;;;;;1.77;1.20;;;;;;;26.12;49.37;92974.06;2048477;70;20160;-72
2022/06/28 10:49:12;;;;;;;1.60;1.25;;;;;;;26.00;49.60;92992.00;2048017;70;20186;-72
2022/06/28 10:52:08;;;;;;;10.80;2.08;;;;;;;26.43;50.45;93000.22;2044900;69;20179;-71
2022/06/28 10:54:34;;;;;;;6.55;1.70;;;;;;;26.21;50.41;92986.41;2045475;70;20158;-71
2022/06/28 10:57:00;;;;;;;5.00;1.40;;;;;;;25.75;51.60;92998.97;2045228;70;20150;-73
2022/06/28 10:59:38;;;;;;;4.00;1.50;;;;;;;26.00;52.19;93002.81;2044957;70;20139;-71
2022/06/28 11:02:04;;;;;;;1.92;1.38;;;;;;;26.24;55.63;92996.50;2044710;70;20163;-72
2022/06/28 11:04:30;;;;;;;3.08;1.40;;;;;;;26.19;54.12;93015.94;2045167;70;20162;-77
2022/06/28 11:07:19;;;;;;;2.63;1.63;;;;;;;26.06;55.38;93029.53;2048163;70;20143;-80
2022/06/28 11:09:47;;;;;;;1.77;1.20;;;;;;;25.87;54.92;93050.28;2048470;70;20600;-75
2022/06/28 11:12:28;;;;;;;3.95;1.33;;;;;;;25.52;54.85;93061.44;2048255;70;20151;-74
2022/06/28 11:15:02;;;;;;;2.00;1.50;;;;;;;25.22;56.25;93062.56;2048263;70;20153;-79
2022/06/28 11:17:34;;;;;;;3.13;1.30;;;;;;;25.05;57.72;93070.25;2048687;70;20249;-74
2022/06/28 11:20:03;;;;;;;2.75;1.38;;;;;;;24.98;57.27;93088.88;2048597;70;20652;-76
2022/06/28 11:22:37;;;;;;;1.52;1.35;;;;;;;24.80;57.66;93085.75;2048384;70;20177;-73
2022/06/28 11:25:05;;;;;;;2.03;1.30;;;;;;;24.41;58.10;93070.81;2048515;70;20626;-77
2022/06/28 11:27:32;;;;;;;3.72;1.60;;;;;;;24.28;56.91;93066.25;2048325;70;20146;-75
2022/06/28 11:30:00;;;;;;;4.80;1.65;;;;;;;24.09;57.05;93077.47;2048394;70;20182;-74
2022/06/28 11:32:34;;;;;;;3.92;1.88;;;;;;;23.92;58.32;93095.88;2048498;70;20147;-74
2022/06/28 11:38:47;;;;;;;5.25;1.90;;;;;;;23.47;58.93;93135.28;2048093;70;20277;-75
2022/06/28 11:41:27;;;;;;;3.47;1.90;;;;;;;23.38;57.99;93130.06;2048331;70;20555;-74
2022/06/28 11:43:58;;;;;;;5.00;1.75;;;;;;;23.26;57.71;93131.25;2048601;70;20206;-77
2022/06/28 11:46:26;;;;;;;6.22;2.42;;;;;;;21.73;68.33;93139.16;2048656;70;20147;-77
2022/06/28 11:48:52;;;;;;;16.95;2.78;;;;;;;21.16;70.63;93151.88;2045243;70;20139;-76
2022/06/28 11:51:43;;;;;;;7.10;2.60;;;;;;;22.08;68.77;93151.47;2048396;70;20736;-74
2022/06/28 11:54:09;;;;;;;5.28;2.40;;;;;;;22.30;68.26;93139.88;2047552;70;20174;-75
2022/06/28 11:56:45;;;;;;;8.63;2.60;;;;;;;22.42;67.46;93137.28;2048070;70;20233;-74
2022/06/28 11:59:12;;;;;;;7.10;2.60;;;;;;;22.27;68.31;93135.50;2048380;70;20318;-74
2022/06/28 12:01:41;;;;;;;4.07;2.33;;;;;;;22.27;68.96;93129.78;2045046;70;20186;-73